If you wish to contribute or participate in the discussions about articles you are invited to join SKYbrary as a registered user

 Actions

Valladolid Airport

From SKYbrary Wiki

LEVD
Airport
ICAO: LEVD – IATA: VLL
Summary
Name Valladolid Airport
Region Europe
Territory Spain ES.gif
Location , Castilla y Leon
Serving Valladolid
Elevation 846.125 m
2,776 ft
2,776 ft846.125 m
Type medium airport
Coordinates 41° 42' 22.00" N, 4° 51' 7.00" W
Runways
Designator Length Width Surface ROPS
5/23 3000 m9,842.52 ft
60 m196.85 ft
ASP yes/yes
15/33 907 m2,975.722 ft
60 m196.85 ft
GRE /


METAR
Observation LEVD 211600Z 08001KT 9999 FEW030 FEW035TCU 12/04 Q1017
Station Valladolid / Villanubla
Date/Time 21 October 2019 16:00:00
Wind direction 80°
Wind speed 01 kts
Lowest cloud amount few clouds
Temperature 12°C
Dew point 4°C
Humidity 58%
QNH 1017 hPa
Weather condition n/a